sensor_id;sensor_type;location;lat;lon;timestamp;P1;durP1;ratioP1;P2;durP2;ratioP2
40669;SDS011;26355;45.528;9.234;2023-06-22T00:02:08;21.15;;;8.65;;
40669;SDS011;26355;45.528;9.234;2023-06-22T00:04:33;20.55;;;9.00;;
40669;SDS011;26355;45.528;9.234;2023-06-22T00:06:59;22.48;;;8.80;;
40669;SDS011;26355;45.528;9.234;2023-06-22T00:09:25;20.60;;;8.55;;
40669;SDS011;26355;45.528;9.234;2023-06-22T00:11:50;18.50;;;8.35;;
40669;SDS011;26355;45.528;9.234;2023-06-22T00:14:16;20.33;;;8.75;;
40669;SDS011;26355;45.528;9.234;2023-06-22T00:16:41;20.80;;;8.65;;
40669;SDS011;26355;45.528;9.234;2023-06-22T00:19:07;22.60;;;8.82;;
40669;SDS011;26355;45.528;9.234;2023-06-22T00:21:36;23.20;;;8.80;;
40669;SDS011;26355;45.528;9.234;2023-06-22T00:24:03;20.67;;;8.65;;
40669;SDS011;26355;45.528;9.234;2023-06-22T00:26:29;21.88;;;8.20;;
40669;SDS011;26355;45.528;9.234;2023-06-22T00:28:54;21.23;;;8.95;;
40669;SDS011;26355;45.528;9.234;2023-06-22T00:31:20;20.63;;;8.95;;
40669;SDS011;26355;45.528;9.234;2023-06-22T00:33:46;18.63;;;8.80;;
40669;SDS011;26355;45.528;9.234;2023-06-22T00:36:11;24.85;;;9.27;;
40669;SDS011;26355;45.528;9.234;2023-06-22T00:38:41;18.27;;;8.25;;
40669;SDS011;26355;45.528;9.234;2023-06-22T00:41:06;18.42;;;9.02;;
40669;SDS011;26355;45.528;9.234;2023-06-22T00:43:32;19.70;;;8.35;;
40669;SDS011;26355;45.528;9.234;2023-06-22T00:45:58;22.00;;;9.40;;
40669;SDS011;26355;45.528;9.234;2023-06-22T00:48:24;19.42;;;9.43;;
40669;SDS011;26355;45.528;9.234;2023-06-22T00:50:50;21.20;;;8.93;;
40669;SDS011;26355;45.528;9.234;2023-06-22T00:53:18;19.73;;;8.55;;
40669;SDS011;26355;45.528;9.234;2023-06-22T00:55:44;18.15;;;8.63;;
40669;SDS011;26355;45.528;9.234;2023-06-22T00:58:12;21.98;;;8.60;;
40669;SDS011;26355;45.528;9.234;2023-06-22T01:00:38;22.13;;;9.67;;
40669;SDS011;26355;45.528;9.234;2023-06-22T01:03:05;20.63;;;9.40;;
40669;SDS011;26355;45.528;9.234;2023-06-22T01:05:34;19.67;;;8.68;;
40669;SDS011;26355;45.528;9.234;2023-06-22T01:10:41;17.88;;;8.73;;
40669;SDS011;26355;45.528;9.234;2023-06-22T01:15:53;18.65;;;8.50;;
40669;SDS011;26355;45.528;9.234;2023-06-22T01:18:24;20.10;;;8.75;;
40669;SDS011;26355;45.528;9.234;2023-06-22T01:20:56;20.75;;;8.50;;
40669;SDS011;26355;45.528;9.234;2023-06-22T01:23:27;20.58;;;8.43;;
40669;SDS011;26355;45.528;9.234;2023-06-22T01:26:06;20.10;;;9.98;;
40669;SDS011;26355;45.528;9.234;2023-06-22T01:28:46;23.95;;;9.88;;
40669;SDS011;26355;45.528;9.234;2023-06-22T01:31:13;20.90;;;8.88;;
40669;SDS011;26355;45.528;9.234;2023-06-22T01:33:43;21.10;;;9.15;;
40669;SDS011;26355;45.528;9.234;2023-06-22T01:36:10;19.48;;;8.88;;
40669;SDS011;26355;45.528;9.234;2023-06-22T01:38:36;19.92;;;9.13;;
40669;SDS011;26355;45.528;9.234;2023-06-22T01:41:03;22.50;;;10.43;;
40669;SDS011;26355;45.528;9.234;2023-06-22T01:43:29;20.50;;;10.13;;
40669;SDS011;26355;45.528;9.234;2023-06-22T01:45:55;20.87;;;9.63;;
40669;SDS011;26355;45.528;9.234;2023-06-22T01:48:22;21.35;;;9.13;;
40669;SDS011;26355;45.528;9.234;2023-06-22T01:50:49;19.90;;;9.20;;
40669;SDS011;26355;45.528;9.234;2023-06-22T01:53:14;18.73;;;9.07;;
40669;SDS011;26355;45.528;9.234;2023-06-22T01:55:40;18.75;;;9.10;;
40669;SDS011;26355;45.528;9.234;2023-06-22T01:58:05;21.20;;;10.10;;
40669;SDS011;26355;45.528;9.234;2023-06-22T02:00:32;19.30;;;9.48;;
40669;SDS011;26355;45.528;9.234;2023-06-22T02:03:11;19.45;;;9.27;;
40669;SDS011;26355;45.528;9.234;2023-06-22T02:05:46;19.92;;;8.98;;
40669;SDS011;26355;45.528;9.234;2023-06-22T02:08:20;19.38;;;8.50;;
40669;SDS011;26355;45.528;9.234;2023-06-22T02:10:49;21.13;;;9.25;;
40669;SDS011;26355;45.528;9.234;2023-06-22T02:13:16;19.77;;;9.52;;
40669;SDS011;26355;45.528;9.234;2023-06-22T02:15:42;20.25;;;9.30;;
40669;SDS011;26355;45.528;9.234;2023-06-22T02:18:08;21.40;;;8.77;;
40669;SDS011;26355;45.528;9.234;2023-06-22T02:20:37;19.83;;;9.02;;
40669;SDS011;26355;45.528;9.234;2023-06-22T02:23:03;19.15;;;8.43;;
40669;SDS011;26355;45.528;9.234;2023-06-22T02:25:29;22.97;;;8.93;;
40669;SDS011;26355;45.528;9.234;2023-06-22T02:27:55;21.02;;;10.07;;
40669;SDS011;26355;45.528;9.234;2023-06-22T02:30:20;18.65;;;8.93;;
40669;SDS011;26355;45.528;9.234;2023-06-22T02:32:46;19.65;;;9.20;;
40669;SDS011;26355;45.528;9.234;2023-06-22T02:35:11;19.98;;;8.65;;
40669;SDS011;26355;45.528;9.234;2023-06-22T02:37:37;19.25;;;8.98;;
40669;SDS011;26355;45.528;9.234;2023-06-22T02:40:06;22.00;;;10.07;;
40669;SDS011;26355;45.528;9.234;2023-06-22T02:42:34;21.23;;;8.70;;
40669;SDS011;26355;45.528;9.234;2023-06-22T02:45:00;20.25;;;8.70;;
40669;SDS011;26355;45.528;9.234;2023-06-22T02:47:26;23.45;;;9.40;;
40669;SDS011;26355;45.528;9.234;2023-06-22T02:49:52;20.38;;;9.23;;
40669;SDS011;26355;45.528;9.234;2023-06-22T02:52:17;20.90;;;8.93;;
40669;SDS011;26355;45.528;9.234;2023-06-22T02:54:43;21.75;;;9.40;;
40669;SDS011;26355;45.528;9.234;2023-06-22T02:57:11;19.38;;;8.85;;
40669;SDS011;26355;45.528;9.234;2023-06-22T02:59:38;19.70;;;8.68;;
40669;SDS011;26355;45.528;9.234;2023-06-22T03:02:06;20.20;;;9.18;;
40669;SDS011;26355;45.528;9.234;2023-06-22T03:04:33;20.45;;;9.52;;
40669;SDS011;26355;45.528;9.234;2023-06-22T03:06:59;22.25;;;9.70;;
40669;SDS011;26355;45.528;9.234;2023-06-22T03:11:54;25.45;;;9.85;;
40669;SDS011;26355;45.528;9.234;2023-06-22T03:14:20;19.08;;;9.10;;
40669;SDS011;26355;45.528;9.234;2023-06-22T03:16:46;21.20;;;9.75;;
40669;SDS011;26355;45.528;9.234;2023-06-22T03:19:11;23.23;;;9.63;;
40669;SDS011;26355;45.528;9.234;2023-06-22T03:21:37;23.15;;;10.10;;
40669;SDS011;26355;45.528;9.234;2023-06-22T03:24:04;23.38;;;10.10;;
40669;SDS011;26355;45.528;9.234;2023-06-22T03:26:30;21.40;;;9.85;;
40669;SDS011;26355;45.528;9.234;2023-06-22T03:28:56;21.63;;;10.13;;
40669;SDS011;26355;45.528;9.234;2023-06-22T03:31:21;22.13;;;9.65;;
40669;SDS011;26355;45.528;9.234;2023-06-22T03:33:47;22.13;;;10.82;;
40669;SDS011;26355;45.528;9.234;2023-06-22T03:36:17;23.38;;;9.63;;
40669;SDS011;26355;45.528;9.234;2023-06-22T03:38:46;21.08;;;9.65;;
40669;SDS011;26355;45.528;9.234;2023-06-22T03:41:12;24.10;;;10.20;;
40669;SDS011;26355;45.528;9.234;2023-06-22T03:43:38;21.00;;;9.27;;
40669;SDS011;26355;45.528;9.234;2023-06-22T03:46:04;22.23;;;9.73;;
40669;SDS011;26355;45.528;9.234;2023-06-22T03:48:30;22.13;;;9.77;;
40669;SDS011;26355;45.528;9.234;2023-06-22T03:50:55;20.73;;;9.80;;
40669;SDS011;26355;45.528;9.234;2023-06-22T03:53:21;20.85;;;9.38;;
40669;SDS011;26355;45.528;9.234;2023-06-22T03:55:50;19.70;;;9.60;;
40669;SDS011;26355;45.528;9.234;2023-06-22T03:58:17;21.13;;;9.07;;
40669;SDS011;26355;45.528;9.234;2023-06-22T04:00:48;20.58;;;8.98;;
40669;SDS011;26355;45.528;9.234;2023-06-22T04:03:15;19.73;;;8.73;;
40669;SDS011;26355;45.528;9.234;2023-06-22T04:05:41;19.83;;;9.40;;
40669;SDS011;26355;45.528;9.234;2023-06-22T04:08:07;19.80;;;9.18;;
40669;SDS011;26355;45.528;9.234;2023-06-22T04:10:33;21.77;;;10.40;;
40669;SDS011;26355;45.528;9.234;2023-06-22T04:12:59;20.60;;;9.80;;
40669;SDS011;26355;45.528;9.234;2023-06-22T04:15:25;23.90;;;9.40;;
40669;SDS011;26355;45.528;9.234;2023-06-22T04:17:50;20.25;;;9.60;;
40669;SDS011;26355;45.528;9.234;2023-06-22T04:20:16;20.40;;;8.63;;
40669;SDS011;26355;45.528;9.234;2023-06-22T04:22:42;20.48;;;9.15;;
40669;SDS011;26355;45.528;9.234;2023-06-22T04:25:07;21.08;;;9.05;;
40669;SDS011;26355;45.528;9.234;2023-06-22T04:27:33;20.77;;;9.60;;
40669;SDS011;26355;45.528;9.234;2023-06-22T04:30:05;22.25;;;9.90;;
40669;SDS011;26355;45.528;9.234;2023-06-22T04:32:32;19.33;;;9.02;;
40669;SDS011;26355;45.528;9.234;2023-06-22T04:34:58;20.10;;;9.07;;
40669;SDS011;26355;45.528;9.234;2023-06-22T04:37:25;24.48;;;8.82;;
40669;SDS011;26355;45.528;9.234;2023-06-22T04:39:51;21.85;;;8.70;;
40669;SDS011;26355;45.528;9.234;2023-06-22T04:42:17;22.90;;;9.13;;
40669;SDS011;26355;45.528;9.234;2023-06-22T04:44:42;20.30;;;8.57;;
40669;SDS011;26355;45.528;9.234;2023-06-22T04:47:08;20.75;;;9.02;;
40669;SDS011;26355;45.528;9.234;2023-06-22T04:49:34;20.58;;;9.32;;
40669;SDS011;26355;45.528;9.234;2023-06-22T04:52:02;23.98;;;9.73;;
40669;SDS011;26355;45.528;9.234;2023-06-22T04:54:33;21.10;;;8.60;;
40669;SDS011;26355;45.528;9.234;2023-06-22T04:57:00;22.20;;;9.15;;
40669;SDS011;26355;45.528;9.234;2023-06-22T04:59:27;24.63;;;10.30;;
40669;SDS011;26355;45.528;9.234;2023-06-22T05:01:58;21.85;;;9.05;;
40669;SDS011;26355;45.528;9.234;2023-06-22T05:04:26;20.45;;;9.02;;
40669;SDS011;26355;45.528;9.234;2023-06-22T05:09:19;29.75;;;10.60;;
40669;SDS011;26355;45.528;9.234;2023-06-22T05:11:45;22.08;;;9.18;;
40669;SDS011;26355;45.528;9.234;2023-06-22T05:14:11;24.07;;;10.63;;
40669;SDS011;26355;45.528;9.234;2023-06-22T05:16:37;24.25;;;9.75;;
40669;SDS011;26355;45.528;9.234;2023-06-22T05:19:04;24.23;;;8.93;;
40669;SDS011;26355;45.528;9.234;2023-06-22T05:21:30;24.25;;;9.88;;
40669;SDS011;26355;45.528;9.234;2023-06-22T05:23:56;21.80;;;9.40;;
40669;SDS011;26355;45.528;9.234;2023-06-22T05:26:27;22.55;;;9.00;;
40669;SDS011;26355;45.528;9.234;2023-06-22T05:28:53;22.45;;;9.30;;
40669;SDS011;26355;45.528;9.234;2023-06-22T05:31:20;20.92;;;8.98;;
40669;SDS011;26355;45.528;9.234;2023-06-22T05:33:46;21.02;;;8.98;;
40669;SDS011;26355;45.528;9.234;2023-06-22T05:38:38;21.07;;;8.37;;
40669;SDS011;26355;45.528;9.234;2023-06-22T05:41:04;21.92;;;8.43;;
40669;SDS011;26355;45.528;9.234;2023-06-22T05:43:30;23.02;;;9.93;;
40669;SDS011;26355;45.528;9.234;2023-06-22T05:45:56;23.02;;;9.38;;
40669;SDS011;26355;45.528;9.234;2023-06-22T05:48:22;20.33;;;9.18;;
40669;SDS011;26355;45.528;9.234;2023-06-22T05:50:48;22.92;;;10.93;;
40669;SDS011;26355;45.528;9.234;2023-06-22T05:53:14;22.05;;;9.88;;
40669;SDS011;26355;45.528;9.234;2023-06-22T05:55:40;19.25;;;9.10;;
40669;SDS011;26355;45.528;9.234;2023-06-22T05:58:06;20.50;;;9.38;;
40669;SDS011;26355;45.528;9.234;2023-06-22T06:00:32;25.95;;;10.63;;
40669;SDS011;26355;45.528;9.234;2023-06-22T06:02:57;24.27;;;10.75;;
40669;SDS011;26355;45.528;9.234;2023-06-22T06:05:28;26.42;;;10.93;;
40669;SDS011;26355;45.528;9.234;2023-06-22T06:07:54;20.60;;;10.55;;
40669;SDS011;26355;45.528;9.234;2023-06-22T06:10:20;20.80;;;10.60;;
40669;SDS011;26355;45.528;9.234;2023-06-22T06:12:46;21.48;;;10.20;;
40669;SDS011;26355;45.528;9.234;2023-06-22T06:15:11;21.92;;;10.30;;
40669;SDS011;26355;45.528;9.234;2023-06-22T06:17:44;22.48;;;10.57;;
40669;SDS011;26355;45.528;9.234;2023-06-22T06:20:14;24.23;;;11.05;;
40669;SDS011;26355;45.528;9.234;2023-06-22T06:22:40;23.80;;;10.60;;
40669;SDS011;26355;45.528;9.234;2023-06-22T06:25:05;24.20;;;10.90;;
40669;SDS011;26355;45.528;9.234;2023-06-22T06:27:31;24.20;;;11.43;;
40669;SDS011;26355;45.528;9.234;2023-06-22T06:29:57;24.20;;;11.48;;
40669;SDS011;26355;45.528;9.234;2023-06-22T06:32:22;23.00;;;10.43;;
40669;SDS011;26355;45.528;9.234;2023-06-22T06:34:48;20.70;;;10.02;;
40669;SDS011;26355;45.528;9.234;2023-06-22T06:37:13;22.30;;;10.18;;
40669;SDS011;26355;45.528;9.234;2023-06-22T06:39:39;25.00;;;10.05;;
40669;SDS011;26355;45.528;9.234;2023-06-22T06:42:05;24.73;;;9.00;;
40669;SDS011;26355;45.528;9.234;2023-06-22T06:44:31;20.50;;;8.70;;
40669;SDS011;26355;45.528;9.234;2023-06-22T06:46:59;23.63;;;9.38;;
40669;SDS011;26355;45.528;9.234;2023-06-22T06:49:25;22.13;;;9.23;;
40669;SDS011;26355;45.528;9.234;2023-06-22T06:51:51;29.35;;;10.32;;
40669;SDS011;26355;45.528;9.234;2023-06-22T06:54:16;25.45;;;9.75;;
40669;SDS011;26355;45.528;9.234;2023-06-22T06:56:45;22.48;;;9.45;;
40669;SDS011;26355;45.528;9.234;2023-06-22T06:59:13;23.17;;;9.45;;
40669;SDS011;26355;45.528;9.234;2023-06-22T07:01:40;19.83;;;8.93;;
40669;SDS011;26355;45.528;9.234;2023-06-22T07:04:06;22.10;;;9.53;;
40669;SDS011;26355;45.528;9.234;2023-06-22T07:06:31;23.13;;;8.98;;
40669;SDS011;26355;45.528;9.234;2023-06-22T07:08:58;20.45;;;7.95;;
40669;SDS011;26355;45.528;9.234;2023-06-22T07:11:24;20.25;;;8.48;;
40669;SDS011;26355;45.528;9.234;2023-06-22T07:13:50;20.52;;;8.35;;
40669;SDS011;26355;45.528;9.234;2023-06-22T07:16:16;21.08;;;8.90;;
40669;SDS011;26355;45.528;9.234;2023-06-22T07:18:41;19.77;;;8.30;;
40669;SDS011;26355;45.528;9.234;2023-06-22T07:21:07;21.77;;;8.80;;
40669;SDS011;26355;45.528;9.234;2023-06-22T07:23:32;19.70;;;8.57;;
40669;SDS011;26355;45.528;9.234;2023-06-22T07:25:58;20.27;;;8.60;;
40669;SDS011;26355;45.528;9.234;2023-06-22T07:28:27;19.33;;;8.82;;
40669;SDS011;26355;45.528;9.234;2023-06-22T07:30:56;23.15;;;9.48;;
40669;SDS011;26355;45.528;9.234;2023-06-22T07:33:22;24.40;;;9.20;;
40669;SDS011;26355;45.528;9.234;2023-06-22T07:35:47;22.40;;;9.02;;
40669;SDS011;26355;45.528;9.234;2023-06-22T07:38:13;22.63;;;8.38;;
40669;SDS011;26355;45.528;9.234;2023-06-22T07:40:40;24.40;;;9.20;;
40669;SDS011;26355;45.528;9.234;2023-06-22T07:43:06;22.45;;;8.32;;
40669;SDS011;26355;45.528;9.234;2023-06-22T07:45:32;22.25;;;8.27;;
40669;SDS011;26355;45.528;9.234;2023-06-22T07:47:59;21.55;;;8.60;;
40669;SDS011;26355;45.528;9.234;2023-06-22T07:50:25;23.47;;;9.33;;
40669;SDS011;26355;45.528;9.234;2023-06-22T07:52:51;20.38;;;8.77;;
40669;SDS011;26355;45.528;9.234;2023-06-22T07:55:17;22.07;;;8.97;;
40669;SDS011;26355;45.528;9.234;2023-06-22T07:57:43;23.98;;;8.15;;
40669;SDS011;26355;45.528;9.234;2023-06-22T08:00:09;20.60;;;8.00;;
40669;SDS011;26355;45.528;9.234;2023-06-22T08:02:40;25.38;;;9.70;;
40669;SDS011;26355;45.528;9.234;2023-06-22T08:05:06;24.60;;;9.05;;
40669;SDS011;26355;45.528;9.234;2023-06-22T08:07:33;23.95;;;9.30;;
40669;SDS011;26355;45.528;9.234;2023-06-22T08:10:01;24.65;;;9.85;;
40669;SDS011;26355;45.528;9.234;2023-06-22T08:12:27;22.05;;;8.90;;
40669;SDS011;26355;45.528;9.234;2023-06-22T08:14:53;26.42;;;7.70;;
40669;SDS011;26355;45.528;9.234;2023-06-22T08:17:18;23.90;;;8.73;;
40669;SDS011;26355;45.528;9.234;2023-06-22T08:19:44;20.63;;;8.10;;
40669;SDS011;26355;45.528;9.234;2023-06-22T08:22:10;20.60;;;8.85;;
40669;SDS011;26355;45.528;9.234;2023-06-22T08:24:35;21.88;;;7.90;;
40669;SDS011;26355;45.528;9.234;2023-06-22T08:27:01;23.27;;;8.25;;
40669;SDS011;26355;45.528;9.234;2023-06-22T08:29:26;20.50;;;7.85;;
40669;SDS011;26355;45.528;9.234;2023-06-22T08:31:52;21.40;;;8.27;;
40669;SDS011;26355;45.528;9.234;2023-06-22T08:34:17;19.88;;;8.65;;
40669;SDS011;26355;45.528;9.234;2023-06-22T08:36:46;22.63;;;8.73;;
40669;SDS011;26355;45.528;9.234;2023-06-22T08:39:16;21.00;;;9.07;;
40669;SDS011;26355;45.528;9.234;2023-06-22T08:41:42;23.95;;;9.27;;
40669;SDS011;26355;45.528;9.234;2023-06-22T08:44:08;23.00;;;7.93;;
40669;SDS011;26355;45.528;9.234;2023-06-22T08:46:33;26.27;;;9.07;;
40669;SDS011;26355;45.528;9.234;2023-06-22T08:48:59;23.98;;;9.70;;
40669;SDS011;26355;45.528;9.234;2023-06-22T08:51:26;21.33;;;8.65;;
40669;SDS011;26355;45.528;9.234;2023-06-22T08:53:52;20.33;;;9.00;;
40669;SDS011;26355;45.528;9.234;2023-06-22T08:56:17;20.30;;;7.97;;
40669;SDS011;26355;45.528;9.234;2023-06-22T08:58:43;22.33;;;9.18;;
40669;SDS011;26355;45.528;9.234;2023-06-22T09:01:09;22.55;;;9.30;;
40669;SDS011;26355;45.528;9.234;2023-06-22T09:03:35;22.00;;;8.55;;
40669;SDS011;26355;45.528;9.234;2023-06-22T09:06:02;22.27;;;8.30;;
40669;SDS011;26355;45.528;9.234;2023-06-22T09:08:28;24.77;;;8.50;;
40669;SDS011;26355;45.528;9.234;2023-06-22T09:13:38;21.48;;;8.85;;
40669;SDS011;26355;45.528;9.234;2023-06-22T09:16:03;22.20;;;9.15;;
40669;SDS011;26355;45.528;9.234;2023-06-22T09:18:29;20.88;;;8.10;;
40669;SDS011;26355;45.528;9.234;2023-06-22T09:20:55;19.20;;;8.40;;
40669;SDS011;26355;45.528;9.234;2023-06-22T09:23:20;23.15;;;8.88;;
40669;SDS011;26355;45.528;9.234;2023-06-22T09:25:46;23.42;;;8.40;;
40669;SDS011;26355;45.528;9.234;2023-06-22T09:28:12;19.65;;;8.55;;
40669;SDS011;26355;45.528;9.234;2023-06-22T09:30:42;20.45;;;9.43;;
40669;SDS011;26355;45.528;9.234;2023-06-22T09:33:09;22.42;;;8.43;;
40669;SDS011;26355;45.528;9.234;2023-06-22T09:35:34;22.10;;;8.75;;
40669;SDS011;26355;45.528;9.234;2023-06-22T09:38:00;21.30;;;8.50;;
40669;SDS011;26355;45.528;9.234;2023-06-22T09:40:25;23.70;;;8.57;;
40669;SDS011;26355;45.528;9.234;2023-06-22T09:42:51;19.95;;;8.07;;
40669;SDS011;26355;45.528;9.234;2023-06-22T09:45:16;19.77;;;8.33;;
40669;SDS011;26355;45.528;9.234;2023-06-22T09:47:42;21.50;;;8.65;;
40669;SDS011;26355;45.528;9.234;2023-06-22T09:50:07;22.57;;;8.57;;
40669;SDS011;26355;45.528;9.234;2023-06-22T09:52:33;19.73;;;8.63;;
40669;SDS011;26355;45.528;9.234;2023-06-22T09:54:59;23.38;;;9.10;;
40669;SDS011;26355;45.528;9.234;2023-06-22T09:57:24;18.40;;;8.00;;
40669;SDS011;26355;45.528;9.234;2023-06-22T09:59:50;20.70;;;9.75;;
40669;SDS011;26355;45.528;9.234;2023-06-22T10:02:16;22.20;;;8.50;;
40669;SDS011;26355;45.528;9.234;2023-06-22T10:04:42;22.42;;;9.02;;
40669;SDS011;26355;45.528;9.234;2023-06-22T10:07:08;21.42;;;8.90;;
40669;SDS011;26355;45.528;9.234;2023-06-22T10:09:33;20.60;;;8.20;;
40669;SDS011;26355;45.528;9.234;2023-06-22T10:11:59;23.43;;;8.33;;
40669;SDS011;26355;45.528;9.234;2023-06-22T10:14:24;19.67;;;8.00;;
40669;SDS011;26355;45.528;9.234;2023-06-22T10:16:51;21.27;;;8.27;;
40669;SDS011;26355;45.528;9.234;2023-06-22T10:19:17;19.60;;;8.55;;
40669;SDS011;26355;45.528;9.234;2023-06-22T10:21:43;20.98;;;8.55;;
40669;SDS011;26355;45.528;9.234;2023-06-22T10:24:09;19.10;;;8.13;;
40669;SDS011;26355;45.528;9.234;2023-06-22T10:26:35;17.60;;;8.10;;
40669;SDS011;26355;45.528;9.234;2023-06-22T10:29:04;18.55;;;8.13;;
40669;SDS011;26355;45.528;9.234;2023-06-22T10:34:52;22.67;;;8.13;;
40669;SDS011;26355;45.528;9.234;2023-06-22T10:37:18;20.67;;;8.45;;
40669;SDS011;26355;45.528;9.234;2023-06-22T10:39:44;22.27;;;7.80;;
40669;SDS011;26355;45.528;9.234;2023-06-22T10:42:09;16.90;;;6.63;;
40669;SDS011;26355;45.528;9.234;2023-06-22T10:44:35;21.20;;;7.40;;
40669;SDS011;26355;45.528;9.234;2023-06-22T10:47:00;17.70;;;7.53;;
40669;SDS011;26355;45.528;9.234;2023-06-22T10:49:26;19.33;;;7.63;;
40669;SDS011;26355;45.528;9.234;2023-06-22T10:51:51;21.03;;;7.50;;
40669;SDS011;26355;45.528;9.234;2023-06-22T10:54:17;20.27;;;7.23;;
40669;SDS011;26355;45.528;9.234;2023-06-22T10:59:09;18.30;;;7.53;;
40669;SDS011;26355;45.528;9.234;2023-06-22T11:01:35;17.70;;;7.47;;
40669;SDS011;26355;45.528;9.234;2023-06-22T11:04:01;19.40;;;7.55;;
40669;SDS011;26355;45.528;9.234;2023-06-22T11:06:27;22.17;;;7.40;;
40669;SDS011;26355;45.528;9.234;2023-06-22T11:08:53;17.60;;;7.13;;
40669;SDS011;26355;45.528;9.234;2023-06-22T11:11:18;19.23;;;7.77;;
40669;SDS011;26355;45.528;9.234;2023-06-22T11:13:44;22.03;;;8.30;;
40669;SDS011;26355;45.528;9.234;2023-06-22T11:16:10;20.77;;;7.37;;
40669;SDS011;26355;45.528;9.234;2023-06-22T11:18:35;18.13;;;6.60;;
40669;SDS011;26355;45.528;9.234;2023-06-22T11:21:01;19.73;;;6.83;;
40669;SDS011;26355;45.528;9.234;2023-06-22T11:23:27;18.53;;;6.93;;
40669;SDS011;26355;45.528;9.234;2023-06-22T11:25:53;21.03;;;7.50;;
40669;SDS011;26355;45.528;9.234;2023-06-22T11:28:19;19.67;;;7.18;;
40669;SDS011;26355;45.528;9.234;2023-06-22T11:30:45;21.07;;;8.03;;
40669;SDS011;26355;45.528;9.234;2023-06-22T11:33:11;17.57;;;6.87;;
40669;SDS011;26355;45.528;9.234;2023-06-22T11:35:36;21.80;;;7.53;;
40669;SDS011;26355;45.528;9.234;2023-06-22T11:38:02;20.67;;;7.53;;
40669;SDS011;26355;45.528;9.234;2023-06-22T11:40:29;22.25;;;7.45;;
40669;SDS011;26355;45.528;9.234;2023-06-22T11:42:55;18.33;;;7.60;;
40669;SDS011;26355;45.528;9.234;2023-06-22T11:45:20;21.27;;;7.40;;
40669;SDS011;26355;45.528;9.234;2023-06-22T11:47:46;23.60;;;8.00;;
40669;SDS011;26355;45.528;9.234;2023-06-22T11:50:12;19.20;;;7.17;;
40669;SDS011;26355;45.528;9.234;2023-06-22T11:52:37;17.70;;;7.30;;
40669;SDS011;26355;45.528;9.234;2023-06-22T11:55:03;17.77;;;7.80;;
40669;SDS011;26355;45.528;9.234;2023-06-22T11:57:30;22.80;;;8.00;;
40669;SDS011;26355;45.528;9.234;2023-06-22T11:59:58;20.33;;;6.70;;
40669;SDS011;26355;45.528;9.234;2023-06-22T12:02:23;18.83;;;7.43;;
40669;SDS011;26355;45.528;9.234;2023-06-22T12:04:49;16.03;;;6.47;;
40669;SDS011;26355;45.528;9.234;2023-06-22T12:07:17;18.08;;;7.47;;
40669;SDS011;26355;45.528;9.234;2023-06-22T12:09:43;19.80;;;6.93;;
40669;SDS011;26355;45.528;9.234;2023-06-22T12:12:09;17.47;;;6.73;;
40669;SDS011;26355;45.528;9.234;2023-06-22T12:14:35;18.80;;;7.40;;
40669;SDS011;26355;45.528;9.234;2023-06-22T12:17:00;17.10;;;6.93;;
40669;SDS011;26355;45.528;9.234;2023-06-22T12:19:26;18.13;;;6.70;;
40669;SDS011;26355;45.528;9.234;2023-06-22T12:21:52;16.10;;;6.53;;
40669;SDS011;26355;45.528;9.234;2023-06-22T12:24:17;15.83;;;6.60;;
40669;SDS011;26355;45.528;9.234;2023-06-22T12:26:43;17.97;;;6.83;;
40669;SDS011;26355;45.528;9.234;2023-06-22T12:29:09;16.80;;;6.57;;
40669;SDS011;26355;45.528;9.234;2023-06-22T12:31:35;18.33;;;6.43;;
40669;SDS011;26355;45.528;9.234;2023-06-22T12:34:03;20.20;;;7.68;;
40669;SDS011;26355;45.528;9.234;2023-06-22T12:36:29;19.20;;;6.70;;
40669;SDS011;26355;45.528;9.234;2023-06-22T12:38:55;16.90;;;6.00;;
40669;SDS011;26355;45.528;9.234;2023-06-22T12:41:20;17.20;;;6.37;;
40669;SDS011;26355;45.528;9.234;2023-06-22T12:43:46;18.00;;;6.23;;
40669;SDS011;26355;45.528;9.234;2023-06-22T12:46:12;20.97;;;6.60;;
40669;SDS011;26355;45.528;9.234;2023-06-22T12:48:37;19.00;;;6.80;;
40669;SDS011;26355;45.528;9.234;2023-06-22T12:51:07;18.40;;;7.03;;
40669;SDS011;26355;45.528;9.234;2023-06-22T12:53:34;17.33;;;6.18;;
40669;SDS011;26355;45.528;9.234;2023-06-22T12:55:59;18.30;;;6.23;;
40669;SDS011;26355;45.528;9.234;2023-06-22T12:58:25;18.53;;;5.73;;
40669;SDS011;26355;45.528;9.234;2023-06-22T13:00:51;16.80;;;6.60;;
40669;SDS011;26355;45.528;9.234;2023-06-22T13:03:16;17.53;;;6.27;;
40669;SDS011;26355;45.528;9.234;2023-06-22T13:05:42;19.30;;;7.27;;
40669;SDS011;26355;45.528;9.234;2023-06-22T13:08:07;19.87;;;7.87;;
40669;SDS011;26355;45.528;9.234;2023-06-22T13:10:33;19.47;;;8.00;;
40669;SDS011;26355;45.528;9.234;2023-06-22T13:12:59;22.10;;;9.57;;
40669;SDS011;26355;45.528;9.234;2023-06-22T13:15:30;20.67;;;8.05;;
40669;SDS011;26355;45.528;9.234;2023-06-22T13:17:56;18.80;;;7.80;;
40669;SDS011;26355;45.528;9.234;2023-06-22T13:20:21;19.90;;;8.63;;
40669;SDS011;26355;45.528;9.234;2023-06-22T13:22:47;17.67;;;8.00;;
40669;SDS011;26355;45.528;9.234;2023-06-22T13:25:12;18.07;;;7.50;;
40669;SDS011;26355;45.528;9.234;2023-06-22T13:27:40;18.95;;;7.90;;
40669;SDS011;26355;45.528;9.234;2023-06-22T13:30:06;19.98;;;7.57;;
40669;SDS011;26355;45.528;9.234;2023-06-22T13:32:32;18.90;;;8.25;;
40669;SDS011;26355;45.528;9.234;2023-06-22T13:34:58;17.83;;;7.27;;
40669;SDS011;26355;45.528;9.234;2023-06-22T13:37:23;20.57;;;7.03;;
40669;SDS011;26355;45.528;9.234;2023-06-22T13:39:50;19.45;;;7.00;;
40669;SDS011;26355;45.528;9.234;2023-06-22T13:42:16;20.70;;;7.33;;
40669;SDS011;26355;45.528;9.234;2023-06-22T13:44:41;19.27;;;7.30;;
40669;SDS011;26355;45.528;9.234;2023-06-22T13:47:07;20.73;;;8.10;;
40669;SDS011;26355;45.528;9.234;2023-06-22T13:49:33;19.23;;;7.70;;
40669;SDS011;26355;45.528;9.234;2023-06-22T13:51:58;25.37;;;9.60;;
40669;SDS011;26355;45.528;9.234;2023-06-22T13:54:24;22.52;;;9.93;;
40669;SDS011;26355;45.528;9.234;2023-06-22T13:56:50;18.07;;;6.90;;
40669;SDS011;26355;45.528;9.234;2023-06-22T13:59:15;17.23;;;6.87;;
40669;SDS011;26355;45.528;9.234;2023-06-22T14:01:41;19.17;;;7.83;;
40669;SDS011;26355;45.528;9.234;2023-06-22T14:16:52;18.33;;;7.57;;
40669;SDS011;26355;45.528;9.234;2023-06-22T14:19:18;17.87;;;7.67;;
40669;SDS011;26355;45.528;9.234;2023-06-22T14:21:43;19.40;;;7.47;;
40669;SDS011;26355;45.528;9.234;2023-06-22T14:24:09;19.40;;;7.80;;
40669;SDS011;26355;45.528;9.234;2023-06-22T14:26:34;23.57;;;8.20;;
40669;SDS011;26355;45.528;9.234;2023-06-22T14:29:00;19.77;;;7.57;;
40669;SDS011;26355;45.528;9.234;2023-06-22T14:31:25;18.03;;;7.43;;
40669;SDS011;26355;45.528;9.234;2023-06-22T14:33:51;19.97;;;8.47;;
40669;SDS011;26355;45.528;9.234;2023-06-22T14:36:17;20.50;;;8.27;;
40669;SDS011;26355;45.528;9.234;2023-06-22T14:38:42;20.93;;;7.73;;
40669;SDS011;26355;45.528;9.234;2023-06-22T14:41:09;19.30;;;8.55;;
40669;SDS011;26355;45.528;9.234;2023-06-22T14:43:34;21.03;;;9.17;;
40669;SDS011;26355;45.528;9.234;2023-06-22T14:46:00;19.20;;;9.13;;
40669;SDS011;26355;45.528;9.234;2023-06-22T14:48:26;20.27;;;9.43;;
40669;SDS011;26355;45.528;9.234;2023-06-22T14:50:51;22.77;;;9.53;;
40669;SDS011;26355;45.528;9.234;2023-06-22T14:53:18;22.23;;;9.77;;
40669;SDS011;26355;45.528;9.234;2023-06-22T14:55:44;23.90;;;10.00;;
40669;SDS011;26355;45.528;9.234;2023-06-22T14:58:10;19.50;;;9.50;;
40669;SDS011;26355;45.528;9.234;2023-06-22T15:00:36;21.20;;;10.20;;
40669;SDS011;26355;45.528;9.234;2023-06-22T15:03:02;25.50;;;9.70;;